createdAt,value
2023-01-23T00:15:02.488Z,5.72
2023-01-23T00:20:07.046Z,5.70
2023-01-23T00:25:11.381Z,5.93
2023-01-23T00:30:15.394Z,6.10
2023-01-23T00:35:18.843Z,5.90
2023-01-23T00:40:23.835Z,6.30
2023-01-23T00:50:29.778Z,6.63
2023-01-23T01:00:45.266Z,6.97
2023-01-23T01:06:02.618Z,7.18
2023-01-23T01:11:06.615Z,7.05
2023-01-23T01:16:18.319Z,6.85
2023-01-23T01:21:32.101Z,7.20
2023-01-23T01:26:36.095Z,7.10
2023-01-23T01:31:39.283Z,8.23
2023-01-23T01:46:49.513Z,8.75
2023-01-23T01:52:07.638Z,8.95
2023-01-23T01:57:25.547Z,9.73
2023-01-23T02:02:51.587Z,8.85
2023-01-23T02:08:06.267Z,9.60
2023-01-23T02:13:37.187Z,9.63
2023-01-23T02:18:44.302Z,10.02
2023-01-23T02:23:55.091Z,11.43
2023-01-23T02:34:13.888Z,10.13
2023-01-23T02:39:19.335Z,9.60
2023-01-23T02:44:31.369Z,10.65
2023-01-23T02:49:38.746Z,10.82
2023-01-23T02:54:42.951Z,10.95
2023-01-23T02:59:46.742Z,10.43
2023-01-23T03:04:50.284Z,11.40
2023-01-23T03:14:56.569Z,11.77
2023-01-23T03:19:59.820Z,12.75
2023-01-23T03:25:12.165Z,11.45
2023-01-23T03:30:28.515Z,11.10
2023-01-23T03:35:31.775Z,11.65
2023-01-23T03:40:36.107Z,11.57
2023-01-23T03:45:41.585Z,11.18
2023-01-23T03:50:44.964Z,12.07
2023-01-23T03:55:49.581Z,11.70
2023-01-23T04:00:53.458Z,12.63
2023-01-23T04:05:58.798Z,11.82
2023-01-23T04:11:05.257Z,12.10
2023-01-23T04:16:09.065Z,12.50
2023-01-23T04:21:13.740Z,12.48
2023-01-23T04:26:18.388Z,12.27
2023-01-23T04:36:50.097Z,13.00
2023-01-23T04:41:55.322Z,13.07
2023-01-23T04:47:21.541Z,13.57
2023-01-23T04:52:25.897Z,11.68
2023-01-23T04:57:32.991Z,13.00
2023-01-23T05:02:59.279Z,13.35
2023-01-23T05:08:03.641Z,12.65
2023-01-23T05:13:08.736Z,12.85
2023-01-23T05:18:21.762Z,13.40
2023-01-23T05:23:48.916Z,13.18
2023-01-23T05:28:54.340Z,13.20
2023-01-23T05:33:57.721Z,14.95
2023-01-23T05:39:01.278Z,12.98
2023-01-23T05:44:06.343Z,13.93
2023-01-23T05:49:23.353Z,14.13
2023-01-23T05:54:27.876Z,14.48
2023-01-23T05:59:44.346Z,14.52
2023-01-23T06:05:26.116Z,13.98
2023-01-23T06:11:06.253Z,13.75
2023-01-23T06:16:29.079Z,13.52
2023-01-23T06:21:33.952Z,13.88
2023-01-23T06:26:38.062Z,14.70
2023-01-23T06:31:42.753Z,14.77
2023-01-23T06:36:47.726Z,14.10
2023-01-23T06:41:52.010Z,14.80
2023-01-23T06:46:59.081Z,15.77
2023-01-23T06:52:02.845Z,13.93
2023-01-23T06:57:07.044Z,14.75
2023-01-23T07:02:12.243Z,15.18
2023-01-23T07:07:21.035Z,14.93
2023-01-23T07:12:26.712Z,15.77
2023-01-23T07:17:30.889Z,15.45
2023-01-23T07:22:36.979Z,15.60
2023-01-23T07:27:41.230Z,16.25
2023-01-23T07:32:44.484Z,14.93
2023-01-23T07:42:51.607Z,15.95
2023-01-23T07:47:55.283Z,15.45
2023-01-23T07:52:58.568Z,15.85
2023-01-23T07:58:01.899Z,14.82
2023-01-23T08:08:13.528Z,14.25
2023-01-23T08:13:17.322Z,14.75
2023-01-23T08:18:20.619Z,14.52
2023-01-23T08:23:28.986Z,13.48
2023-01-23T08:28:33.077Z,13.05
2023-01-23T08:33:37.662Z,13.52
2023-01-23T08:38:41.406Z,14.02
2023-01-23T08:43:44.979Z,13.80
2023-01-23T08:48:48.076Z,13.75
2023-01-23T08:59:11.372Z,13.02
2023-01-23T09:04:34.248Z,13.60
2023-01-23T09:09:37.570Z,13.90
2023-01-23T09:14:41.602Z,12.65
2023-01-23T09:19:45.450Z,13.48
2023-01-23T09:24:48.766Z,12.32
2023-01-23T09:29:52.092Z,13.43
2023-01-23T09:34:55.372Z,14.23
2023-01-23T09:39:58.684Z,12.80
2023-01-23T09:45:05.658Z,13.00
2023-01-23T09:50:19.697Z,12.45
2023-01-23T09:55:51.536Z,12.30
2023-01-23T10:00:55.201Z,12.48
2023-01-23T10:06:25.236Z,13.98
2023-01-23T10:11:40.616Z,13.95
2023-01-23T10:17:18.049Z,12.77
2023-01-23T10:22:38.111Z,12.48
2023-01-23T10:27:45.471Z,12.52
2023-01-23T10:32:57.843Z,11.63
2023-01-23T10:38:10.864Z,12.13
2023-01-23T10:43:22.271Z,12.40
2023-01-23T10:48:50.798Z,12.68
2023-01-23T10:54:11.297Z,12.82
2023-01-23T10:59:26.780Z,12.60
2023-01-23T11:04:36.263Z,12.45
2023-01-23T11:10:02.409Z,12.88
2023-01-23T11:15:24.171Z,12.00
2023-01-23T11:20:35.484Z,12.20
2023-01-23T11:25:44.392Z,13.40
2023-01-23T11:30:58.342Z,12.40
2023-01-23T11:36:20.249Z,9.05
2023-01-23T11:41:31.605Z,9.52
2023-01-23T11:46:57.678Z,10.05
2023-01-23T11:52:35.237Z,10.10
2023-01-23T11:58:13.409Z,10.45
2023-01-23T12:03:51.835Z,10.73
2023-01-23T12:09:07.015Z,11.55
2023-01-23T12:14:42.190Z,12.40
2023-01-23T12:19:56.839Z,13.10
2023-01-23T12:25:37.993Z,14.45
2023-01-23T12:30:43.994Z,15.50
2023-01-23T12:36:01.493Z,16.08
2023-01-23T12:41:25.189Z,16.77
2023-01-23T12:46:46.318Z,18.95
2023-01-23T12:52:25.955Z,20.08
2023-01-23T12:57:45.878Z,17.50
2023-01-23T13:03:37.314Z,20.73
2023-01-23T13:09:17.493Z,20.90
2023-01-23T13:14:43.410Z,21.67
2023-01-23T13:20:26.631Z,19.77
2023-01-23T13:25:50.512Z,21.27
2023-01-23T13:31:05.164Z,22.45
2023-01-23T13:36:23.865Z,20.98
2023-01-23T13:41:29.511Z,19.73
2023-01-23T14:24:27.988Z,14.80
2023-01-23T14:29:31.087Z,15.75
2023-01-23T14:34:39.639Z,14.15
2023-01-23T14:39:53.066Z,13.27
2023-01-23T14:45:00.918Z,11.63
2023-01-23T14:50:36.118Z,13.63
2023-01-23T14:55:42.804Z,13.18
2023-01-23T15:00:46.714Z,12.30
2023-01-23T15:05:57.729Z,12.65
2023-01-23T15:11:02.717Z,14.02
2023-01-23T15:16:18.345Z,13.95
2023-01-23T15:21:33.646Z,14.50
2023-01-23T15:26:38.589Z,15.30
2023-01-23T15:31:47.212Z,15.15
2023-01-23T15:36:57.916Z,13.95
2023-01-23T15:42:26.159Z,15.00
2023-01-23T15:47:31.768Z,15.23
2023-01-23T15:52:52.568Z,16.23
2023-01-23T15:57:56.625Z,17.20
2023-01-23T16:03:00.210Z,14.85
2023-01-23T16:08:04.454Z,15.48
2023-01-23T16:13:13.875Z,14.45
2023-01-23T16:18:17.094Z,13.77
2023-01-23T16:28:25.499Z,13.35
2023-01-23T16:33:30.145Z,13.63
2023-01-23T16:38:33.544Z,12.88
2023-01-23T16:43:49.537Z,12.35
2023-01-23T16:49:13.260Z,12.27
2023-01-23T16:54:19.492Z,12.20
2023-01-23T16:59:38.744Z,11.30
2023-01-23T17:04:42.151Z,10.48
2023-01-23T17:09:46.314Z,10.82
2023-01-23T17:14:50.484Z,9.45
2023-01-23T17:19:54.080Z,10.15
2023-01-23T17:24:57.495Z,9.45
2023-01-23T17:30:01.399Z,9.30
2023-01-23T17:35:09.516Z,8.30
2023-01-23T17:40:16.902Z,8.60
2023-01-23T17:45:23.592Z,7.80
2023-01-23T17:50:27.599Z,7.47
2023-01-23T17:55:31.852Z,6.85
2023-01-23T18:00:35.852Z,7.53
2023-01-23T18:05:39.933Z,7.82
2023-01-23T18:10:48.094Z,6.22
2023-01-23T18:16:16.244Z,6.13
2023-01-23T18:21:20.936Z,7.00
2023-01-23T18:26:45.073Z,6.72
2023-01-23T18:32:08.221Z,6.30
2023-01-23T18:37:42.624Z,6.37
2023-01-23T18:42:54.990Z,6.00
2023-01-23T18:47:59.374Z,6.30
2023-01-23T18:53:40.635Z,5.03
2023-01-23T18:59:33.746Z,6.07
2023-01-23T19:05:14.587Z,5.38
2023-01-23T19:10:46.743Z,5.88
2023-01-23T19:16:16.901Z,7.18
2023-01-23T19:21:24.271Z,7.88
2023-01-23T19:26:47.806Z,7.47
2023-01-23T19:32:10.716Z,7.35
2023-01-23T19:37:14.281Z,7.97
2023-01-23T19:42:17.670Z,8.35
2023-01-23T19:47:20.908Z,7.65
2023-01-23T19:57:29.675Z,8.60
2023-01-23T20:02:33.561Z,7.40
2023-01-23T20:07:37.056Z,7.85
2023-01-23T20:17:50.251Z,7.28
2023-01-23T20:28:09.673Z,7.22
2023-01-23T20:33:45.668Z,7.90
2023-01-23T20:39:08.677Z,7.93
2023-01-23T20:44:12.440Z,8.15
2023-01-23T20:49:15.804Z,7.70
2023-01-23T21:04:27.856Z,7.43
2023-01-23T21:09:31.237Z,7.32
2023-01-23T21:19:38.680Z,7.35
2023-01-23T21:24:42.051Z,6.72
2023-01-23T21:29:45.597Z,6.55
2023-01-23T21:34:48.931Z,6.70
2023-01-23T21:39:52.275Z,7.25
2023-01-23T21:44:55.498Z,6.72
2023-01-23T21:49:58.873Z,7.07
2023-01-23T21:55:02.399Z,7.22
2023-01-23T22:00:06.809Z,6.90
2023-01-23T22:05:15.724Z,7.28
2023-01-23T22:10:18.966Z,7.03
2023-01-23T22:15:22.594Z,7.40
2023-01-23T22:20:26.370Z,7.15
2023-01-23T22:25:29.604Z,6.80
2023-01-23T22:35:40.217Z,7.28
2023-01-23T22:40:43.792Z,6.55
2023-01-23T22:50:58.360Z,7.47
2023-01-23T22:56:16.854Z,6.68
2023-01-23T23:01:20.692Z,7.47
2023-01-23T23:06:24.709Z,7.68
2023-01-23T23:11:29.077Z,8.25
2023-01-23T23:16:40.735Z,8.25
2023-01-23T23:21:56.837Z,8.13
2023-01-23T23:32:03.231Z,8.18
2023-01-23T23:37:06.431Z,9.07
2023-01-23T23:47:33.061Z,9.23
2023-01-23T23:52:36.936Z,10.32
2023-01-23T23:57:40.514Z,9.63
